createdAt,value
2022-09-16T00:00:46.421Z,18.48
2022-09-16T00:03:14.047Z,18.51
2022-09-16T00:05:42.611Z,18.53
2022-09-16T00:08:10.155Z,18.52
2022-09-16T00:10:38.955Z,18.49
2022-09-16T00:13:06.514Z,18.47
2022-09-16T00:15:35.145Z,18.49
2022-09-16T00:18:02.686Z,18.49
2022-09-16T00:20:30.030Z,18.41
2022-09-16T00:22:57.330Z,18.46
2022-09-16T00:25:24.648Z,18.39
2022-09-16T00:27:52.033Z,18.33
2022-09-16T00:30:19.558Z,18.33
2022-09-16T00:32:47.089Z,18.32
2022-09-16T00:35:14.517Z,18.34
2022-09-16T00:37:41.908Z,18.32
2022-09-16T00:40:09.763Z,18.31
2022-09-16T00:42:38.347Z,18.37
2022-09-16T00:45:07.100Z,18.29
2022-09-16T00:47:34.453Z,18.33
2022-09-16T00:50:21.394Z,18.29
2022-09-16T00:52:49.328Z,18.23
2022-09-16T00:55:18.140Z,18.33
2022-09-16T00:57:45.487Z,18.23
2022-09-16T01:00:13.908Z,18.30
2022-09-16T01:02:42.562Z,18.25
2022-09-16T01:05:12.421Z,18.24
2022-09-16T01:07:47.805Z,18.19
2022-09-16T01:10:16.031Z,18.22
2022-09-16T01:12:46.845Z,18.20
2022-09-16T01:15:14.776Z,18.19
2022-09-16T01:17:46.723Z,18.29
2022-09-16T01:20:17.040Z,18.32
2022-09-16T01:22:47.289Z,18.27
2022-09-16T01:25:26.736Z,18.13
2022-09-16T01:28:16.923Z,18.21
2022-09-16T01:30:49.707Z,18.24
2022-09-16T01:33:20.401Z,18.21
2022-09-16T01:35:48.035Z,18.16
2022-09-16T01:38:38.394Z,18.11
2022-09-16T01:41:06.199Z,18.18
2022-09-16T01:43:55.030Z,18.10
2022-09-16T01:46:41.224Z,18.08
2022-09-16T01:49:08.660Z,18.02
2022-09-16T01:51:48.038Z,18.00
2022-09-16T01:54:15.376Z,17.94
2022-09-16T01:56:44.802Z,17.92
2022-09-16T01:59:17.080Z,17.97
2022-09-16T02:01:46.455Z,17.93
2022-09-16T02:04:19.563Z,17.97
2022-09-16T02:06:46.969Z,18.02
2022-09-16T02:09:19.190Z,18.01
2022-09-16T02:11:46.974Z,17.96
2022-09-16T02:14:15.664Z,17.86
2022-09-16T02:16:54.251Z,17.93
2022-09-16T02:19:42.065Z,17.97
2022-09-16T02:22:11.819Z,17.92
2022-09-16T02:24:41.369Z,18.00
2022-09-16T02:27:09.809Z,17.97
2022-09-16T02:29:38.212Z,18.10
2022-09-16T02:32:06.195Z,18.10
2022-09-16T02:34:41.004Z,18.11
2022-09-16T02:37:28.648Z,18.10
2022-09-16T02:39:57.962Z,18.04
2022-09-16T02:42:25.429Z,18.19
2022-09-16T02:44:53.129Z,18.18
2022-09-16T02:47:28.164Z,18.20
2022-09-16T02:50:03.782Z,18.20
2022-09-16T02:53:06.886Z,18.25
2022-09-16T02:55:36.265Z,18.19
2022-09-16T02:58:04.755Z,18.15
2022-09-16T03:00:33.524Z,18.25
2022-09-16T03:03:01.749Z,18.30
2022-09-16T03:05:29.714Z,18.29
2022-09-16T03:07:57.514Z,18.28
2022-09-16T03:10:25.875Z,18.20
2022-09-16T03:12:53.298Z,18.23
2022-09-16T03:15:34.634Z,18.19
2022-09-16T03:18:17.473Z,18.20
2022-09-16T03:20:52.231Z,18.23
2022-09-16T03:23:19.612Z,18.05
2022-09-16T03:25:51.587Z,18.23
2022-09-16T03:28:24.330Z,18.19
2022-09-16T03:30:54.510Z,18.19
2022-09-16T03:33:24.524Z,18.18
2022-09-16T03:35:51.970Z,18.08
2022-09-16T03:38:19.437Z,18.09
2022-09-16T03:40:47.016Z,18.08
2022-09-16T03:43:16.155Z,17.97
2022-09-16T03:45:43.728Z,18.02
2022-09-16T03:48:11.779Z,18.11
2022-09-16T03:50:39.343Z,18.25
2022-09-16T03:53:06.862Z,18.27
2022-09-16T03:55:34.374Z,18.20
2022-09-16T03:58:01.958Z,18.16
2022-09-16T04:00:29.460Z,18.18
2022-09-16T04:02:58.901Z,18.19
2022-09-16T04:05:26.632Z,18.17
2022-09-16T04:07:53.942Z,18.14
2022-09-16T04:10:21.258Z,18.16
2022-09-16T04:12:48.784Z,18.17
2022-09-16T04:15:16.098Z,18.20
2022-09-16T04:17:43.798Z,18.18
2022-09-16T04:20:11.243Z,18.29
2022-09-16T04:22:38.728Z,18.29
2022-09-16T04:25:06.510Z,18.28
2022-09-16T04:27:34.385Z,18.30
2022-09-16T04:30:01.797Z,18.36
2022-09-16T04:32:29.568Z,18.37
2022-09-16T04:34:56.984Z,18.39
2022-09-16T04:37:24.469Z,18.50
2022-09-16T04:39:51.896Z,18.36
2022-09-16T04:42:19.204Z,18.50
2022-09-16T04:44:46.553Z,18.57
2022-09-16T04:47:14.203Z,18.65
2022-09-16T04:49:41.616Z,18.65
2022-09-16T04:52:08.975Z,18.74
2022-09-16T04:54:36.875Z,18.70
2022-09-16T04:57:04.292Z,18.90
2022-09-16T04:59:32.055Z,18.87
2022-09-16T05:02:00.160Z,19.07
2022-09-16T05:04:27.586Z,19.05
2022-09-16T05:06:55.764Z,19.02
2022-09-16T05:09:23.175Z,19.22
2022-09-16T05:11:50.583Z,19.36
2022-09-16T05:14:18.401Z,19.45
2022-09-16T05:16:45.756Z,19.63
2022-09-16T05:19:13.583Z,19.61
2022-09-16T05:21:41.028Z,19.91
2022-09-16T05:24:08.894Z,20.12
2022-09-16T05:26:37.477Z,20.27
2022-09-16T05:29:06.005Z,20.42
2022-09-16T05:31:34.862Z,20.46
2022-09-16T05:34:06.302Z,20.18
2022-09-16T05:36:34.961Z,20.22
2022-09-16T05:39:22.249Z,20.24
2022-09-16T05:41:50.112Z,20.26
2022-09-16T05:44:17.610Z,20.27
2022-09-16T05:46:45.079Z,20.09
2022-09-16T05:49:12.656Z,19.98
2022-09-16T05:51:41.468Z,19.95
2022-09-16T05:54:08.919Z,20.00
2022-09-16T05:56:36.280Z,19.98
2022-09-16T05:59:03.587Z,20.02
2022-09-16T06:01:32.144Z,20.11
2022-09-16T06:04:04.123Z,20.35
2022-09-16T06:06:32.596Z,20.63
2022-09-16T06:09:01.569Z,20.85
2022-09-16T06:11:29.136Z,20.84
2022-09-16T06:13:57.375Z,20.89
2022-09-16T06:16:27.719Z,20.95
2022-09-16T06:18:55.685Z,21.06
2022-09-16T06:21:23.497Z,21.13
2022-09-16T06:23:51.018Z,21.36
2022-09-16T06:26:19.684Z,21.58
2022-09-16T06:28:47.294Z,21.60
2022-09-16T06:31:15.724Z,21.62
2022-09-16T06:33:43.419Z,21.56
2022-09-16T06:36:11.779Z,21.47
2022-09-16T06:38:39.967Z,21.44
2022-09-16T06:41:08.342Z,21.51
2022-09-16T06:43:35.766Z,21.68
2022-09-16T06:46:10.324Z,21.80
2022-09-16T06:48:37.819Z,21.93
2022-09-16T06:51:06.294Z,22.08
2022-09-16T06:53:35.104Z,21.92
2022-09-16T06:56:03.084Z,21.85
2022-09-16T06:58:35.203Z,21.72
2022-09-16T07:01:09.079Z,21.70
2022-09-16T07:03:40.481Z,21.57
2022-09-16T07:06:08.208Z,21.47
2022-09-16T07:08:36.400Z,21.49
2022-09-16T07:11:08.219Z,21.53
2022-09-16T07:13:38.162Z,21.49
2022-09-16T07:16:13.394Z,21.47
2022-09-16T07:18:46.603Z,21.44
2022-09-16T07:21:18.710Z,21.49
2022-09-16T07:23:46.417Z,21.74
2022-09-16T07:26:21.019Z,21.75
2022-09-16T07:28:49.639Z,22.14
2022-09-16T07:31:17.973Z,22.30
2022-09-16T07:33:46.365Z,22.40
2022-09-16T07:36:14.988Z,22.69
2022-09-16T07:38:42.779Z,22.95
2022-09-16T07:41:11.537Z,22.87
2022-09-16T07:43:40.409Z,22.75
2022-09-16T07:46:08.420Z,22.61
2022-09-16T07:48:35.835Z,22.77
2022-09-16T07:51:23.572Z,22.92
2022-09-16T07:53:54.917Z,22.48
2022-09-16T07:56:23.708Z,22.63
2022-09-16T07:58:51.064Z,22.59
2022-09-16T08:01:18.612Z,22.44
2022-09-16T08:03:46.109Z,22.29
2022-09-16T08:06:14.467Z,22.31
2022-09-16T08:08:42.602Z,22.37
2022-09-16T08:11:10.180Z,22.32
2022-09-16T08:13:38.100Z,22.31
2022-09-16T08:16:06.576Z,22.28
2022-09-16T08:18:34.116Z,22.21
2022-09-16T08:21:11.810Z,22.30
2022-09-16T08:23:39.784Z,22.34
2022-09-16T08:26:08.599Z,22.42
2022-09-16T08:28:57.639Z,22.51
2022-09-16T08:31:23.412Z,22.60
2022-09-16T08:33:50.735Z,22.72
2022-09-16T08:36:20.244Z,22.90
2022-09-16T08:38:50.611Z,22.89
2022-09-16T08:41:36.412Z,23.00
2022-09-16T08:44:18.365Z,23.07
2022-09-16T08:46:48.835Z,23.01
2022-09-16T08:49:18.011Z,23.16
2022-09-16T08:51:45.648Z,23.20
2022-09-16T08:54:24.805Z,23.24
2022-09-16T08:56:53.620Z,23.21
2022-09-16T08:59:24.349Z,22.97
2022-09-16T09:01:58.536Z,22.87
2022-09-16T09:04:26.441Z,22.79
2022-09-16T09:07:00.009Z,22.68
2022-09-16T09:09:45.497Z,22.69
2022-09-16T09:12:22.851Z,22.89
2022-09-16T09:14:56.737Z,22.76
2022-09-16T09:17:24.439Z,22.74
2022-09-16T09:19:58.324Z,22.67
2022-09-16T09:22:28.920Z,22.74
2022-09-16T09:25:08.357Z,22.67
2022-09-16T09:27:42.717Z,22.56
2022-09-16T09:30:23.384Z,22.56
2022-09-16T09:32:53.907Z,22.57
2022-09-16T09:35:39.636Z,22.63
2022-09-16T09:38:24.879Z,22.52
2022-09-16T09:40:53.777Z,22.55
2022-09-16T09:43:27.659Z,22.57
2022-09-16T09:45:55.259Z,22.40
2022-09-16T09:48:27.644Z,22.25
2022-09-16T09:50:55.109Z,22.19
2022-09-16T09:53:28.919Z,22.17
2022-09-16T09:56:01.237Z,22.16
2022-09-16T09:58:40.210Z,22.14
2022-09-16T10:01:08.638Z,22.31
2022-09-16T10:03:38.156Z,22.34
2022-09-16T10:06:05.828Z,22.62
2022-09-16T10:08:36.901Z,22.79
2022-09-16T10:11:14.771Z,22.71
2022-09-16T10:13:47.642Z,22.72
2022-09-16T10:16:20.925Z,22.78
2022-09-16T10:18:59.514Z,22.76
2022-09-16T10:21:37.482Z,22.67
2022-09-16T10:24:04.935Z,22.61
2022-09-16T10:26:39.397Z,22.77
2022-09-16T10:29:15.829Z,22.83
2022-09-16T10:31:43.618Z,23.25
2022-09-16T10:34:20.693Z,23.29
2022-09-16T10:36:50.011Z,23.44
2022-09-16T10:39:22.470Z,23.13
2022-09-16T10:41:50.024Z,23.30
2022-09-16T10:44:17.792Z,23.49
2022-09-16T10:46:59.083Z,23.43
2022-09-16T10:49:47.089Z,23.50
2022-09-16T10:52:16.565Z,23.37
2022-09-16T10:54:44.048Z,23.27
2022-09-16T10:57:29.237Z,23.06
2022-09-16T11:00:12.401Z,22.82
2022-09-16T11:02:58.893Z,22.67
2022-09-16T11:05:29.936Z,22.75
2022-09-16T11:08:01.283Z,22.73
2022-09-16T11:10:44.227Z,22.54
2022-09-16T11:13:15.714Z,22.42
2022-09-16T11:15:56.057Z,22.19
2022-09-16T11:18:36.883Z,22.41
2022-09-16T11:21:08.668Z,22.36
2022-09-16T11:23:42.710Z,22.29
2022-09-16T11:26:25.163Z,22.25
2022-09-16T11:28:59.122Z,22.05
2022-09-16T11:31:33.880Z,22.18
2022-09-16T11:34:07.599Z,22.13
2022-09-16T11:36:35.721Z,22.09
2022-09-16T11:39:13.615Z,22.16
2022-09-16T11:41:54.656Z,21.89
2022-09-16T11:44:24.112Z,21.82
2022-09-16T11:47:00.910Z,21.80
2022-09-16T11:49:40.273Z,21.84
2022-09-16T11:52:26.466Z,21.87
2022-09-16T11:55:06.967Z,21.86
2022-09-16T11:57:41.908Z,21.97
2022-09-16T12:00:13.440Z,22.08
2022-09-16T12:02:42.380Z,22.16
2022-09-16T12:05:15.582Z,22.11
2022-09-16T12:07:45.466Z,21.82
2022-09-16T12:10:15.010Z,21.87
2022-09-16T12:12:44.633Z,22.09
2022-09-16T12:15:15.270Z,22.20
2022-09-16T12:17:43.528Z,22.22
2022-09-16T12:20:11.376Z,22.36
2022-09-16T12:22:43.446Z,22.45
2022-09-16T12:25:12.996Z,22.60
2022-09-16T12:27:44.846Z,22.57
2022-09-16T12:30:12.358Z,23.00
2022-09-16T12:32:59.213Z,22.84
2022-09-16T12:38:04.123Z,22.87
2022-09-16T12:40:35.878Z,22.84
2022-09-16T12:43:21.898Z,22.85
2022-09-16T12:45:52.576Z,22.79
2022-09-16T12:48:23.109Z,22.66
2022-09-16T12:50:50.657Z,22.60
2022-09-16T12:53:23.937Z,22.67
2022-09-16T12:55:54.573Z,22.54
2022-09-16T12:58:22.056Z,22.58
2022-09-16T13:01:08.549Z,22.40
2022-09-16T13:03:38.154Z,22.43
2022-09-16T13:06:06.653Z,22.51
2022-09-16T13:08:34.118Z,22.59
2022-09-16T13:13:52.419Z,22.47
2022-09-16T13:16:27.464Z,22.36
2022-09-16T13:19:04.779Z,22.56
2022-09-16T13:21:38.751Z,22.59
2022-09-16T13:24:06.178Z,22.59
2022-09-16T13:26:43.248Z,22.56
2022-09-16T13:29:31.017Z,22.90
2022-09-16T13:31:58.728Z,23.07
2022-09-16T13:34:26.724Z,22.99
2022-09-16T13:36:54.305Z,22.73
2022-09-16T13:39:31.650Z,22.96
2022-09-16T13:42:09.882Z,22.78
2022-09-16T13:44:37.297Z,22.59
2022-09-16T13:47:10.550Z,22.69
2022-09-16T13:49:53.928Z,22.83
2022-09-16T13:52:22.246Z,22.73
2022-09-16T13:55:09.448Z,22.75
2022-09-16T13:57:50.875Z,22.73
2022-09-16T14:00:20.176Z,22.51
2022-09-16T14:02:48.772Z,22.38
2022-09-16T14:05:25.495Z,22.51
2022-09-16T14:08:05.482Z,22.54
2022-09-16T14:10:42.516Z,22.52
2022-09-16T14:13:14.159Z,22.27
2022-09-16T14:15:54.479Z,22.22
2022-09-16T14:18:24.246Z,21.96
2022-09-16T14:21:04.955Z,21.95
2022-09-16T14:23:32.741Z,21.95
2022-09-16T14:26:11.738Z,21.97
2022-09-16T14:28:39.761Z,21.75
2022-09-16T14:31:08.067Z,21.63
2022-09-16T14:33:41.139Z,21.55
2022-09-16T14:36:19.152Z,21.67
2022-09-16T14:38:50.889Z,21.73
2022-09-16T14:41:41.672Z,21.74
2022-09-16T14:44:10.726Z,21.67
2022-09-16T14:46:45.159Z,21.53
2022-09-16T14:49:12.806Z,21.57
2022-09-16T14:51:40.501Z,21.40
2022-09-16T14:54:15.425Z,21.27
2022-09-16T14:56:43.037Z,21.29
2022-09-16T14:59:11.064Z,21.16
2022-09-16T15:01:38.515Z,21.14
2022-09-16T15:04:16.600Z,20.82
2022-09-16T15:06:45.628Z,20.74
2022-09-16T15:09:20.560Z,20.58
2022-09-16T15:11:49.387Z,20.54
2022-09-16T15:14:17.427Z,20.59
2022-09-16T15:16:46.034Z,20.55
2022-09-16T15:19:17.086Z,20.74
2022-09-16T15:21:44.534Z,20.68
2022-09-16T15:24:19.574Z,20.77
2022-09-16T15:26:47.058Z,20.58
2022-09-16T15:31:44.710Z,20.59
2022-09-16T15:34:21.139Z,20.67
2022-09-16T15:36:49.126Z,20.60
2022-09-16T15:39:24.322Z,20.45
2022-09-16T15:42:03.217Z,20.50
2022-09-16T15:44:36.420Z,20.55
2022-09-16T15:47:04.798Z,20.48
2022-09-16T15:49:32.943Z,20.30
2022-09-16T15:52:07.597Z,20.23
2022-09-16T15:54:36.816Z,20.24
2022-09-16T15:57:05.988Z,20.35
2022-09-16T15:59:36.814Z,20.24
2022-09-16T16:02:19.010Z,20.18
2022-09-16T16:04:46.468Z,20.12
2022-09-16T16:07:13.742Z,20.14
2022-09-16T16:09:42.187Z,20.24
2022-09-16T16:12:12.653Z,20.04
2022-09-16T16:14:40.234Z,20.09
2022-09-16T16:17:13.613Z,20.00
2022-09-16T16:19:42.684Z,20.11
2022-09-16T16:22:10.213Z,20.05
2022-09-16T16:24:38.164Z,19.90
2022-09-16T16:27:05.613Z,19.97
2022-09-16T16:29:33.123Z,20.02
2022-09-16T16:32:01.288Z,19.75
2022-09-16T16:34:29.265Z,19.62
2022-09-16T16:36:56.591Z,19.62
2022-09-16T16:39:24.635Z,19.58
2022-09-16T16:41:54.104Z,19.31
2022-09-16T16:44:22.984Z,19.42
2022-09-16T16:46:51.528Z,19.40
2022-09-16T16:49:19.132Z,19.27
2022-09-16T16:51:47.965Z,19.29
2022-09-16T16:54:15.452Z,19.42
2022-09-16T16:56:42.844Z,19.17
2022-09-16T16:59:10.377Z,19.19
2022-09-16T17:01:38.219Z,19.21
2022-09-16T17:04:06.216Z,19.07
2022-09-16T17:06:35.163Z,19.11
2022-09-16T17:09:02.947Z,19.00
2022-09-16T17:11:30.469Z,18.84
2022-09-16T17:13:59.242Z,18.85
2022-09-16T17:16:27.011Z,18.77
2022-09-16T17:18:54.687Z,18.79
2022-09-16T17:21:26.149Z,18.76
2022-09-16T17:23:53.744Z,18.68
2022-09-16T17:26:24.144Z,18.67
2022-09-16T17:28:52.040Z,18.85
2022-09-16T17:31:20.618Z,18.78
2022-09-16T17:33:48.194Z,18.86
2022-09-16T17:36:16.884Z,18.66
2022-09-16T17:38:44.451Z,18.65
2022-09-16T17:41:12.737Z,18.62
2022-09-16T17:43:40.141Z,18.65
2022-09-16T17:46:08.234Z,18.69
2022-09-16T17:48:37.617Z,18.69
2022-09-16T17:51:05.016Z,18.66
2022-09-16T17:53:32.565Z,18.59
2022-09-16T17:56:13.127Z,18.44
2022-09-16T17:58:42.657Z,18.31
2022-09-16T18:01:13.953Z,18.40
2022-09-16T18:03:41.992Z,18.31
2022-09-16T18:06:09.352Z,18.30
2022-09-16T18:08:37.185Z,18.22
2022-09-16T18:11:04.582Z,18.22
2022-09-16T18:13:32.296Z,18.13
2022-09-16T18:16:15.864Z,18.28
2022-09-16T18:18:43.500Z,18.07
2022-09-16T18:21:11.988Z,18.17
2022-09-16T18:23:40.389Z,18.03
2022-09-16T18:26:11.791Z,18.12
2022-09-16T18:29:07.904Z,18.02
2022-09-16T18:31:29.909Z,18.03
2022-09-16T18:33:57.528Z,18.12
2022-09-16T18:36:25.999Z,18.11
2022-09-16T18:38:53.855Z,18.03
2022-09-16T18:41:22.183Z,18.08
2022-09-16T18:43:53.555Z,17.94
2022-09-16T18:46:26.324Z,17.96
2022-09-16T18:48:54.310Z,18.00
2022-09-16T18:51:22.750Z,18.01
2022-09-16T18:53:54.401Z,17.93
2022-09-16T18:56:22.315Z,17.87
2022-09-16T18:59:09.892Z,17.81
2022-09-16T19:01:38.900Z,17.83
2022-09-16T19:04:07.515Z,17.83
2022-09-16T19:06:36.239Z,17.84
2022-09-16T19:09:05.672Z,17.95
2022-09-16T19:11:33.401Z,17.84
2022-09-16T19:14:01.323Z,17.77
2022-09-16T19:16:28.909Z,17.91
2022-09-16T19:18:56.489Z,17.58
2022-09-16T19:21:23.933Z,17.61
2022-09-16T19:23:55.446Z,17.62
2022-09-16T19:26:22.909Z,17.63
2022-09-16T19:28:50.747Z,17.61
2022-09-16T19:31:18.667Z,17.55
2022-09-16T19:33:46.057Z,17.71
2022-09-16T19:36:17.437Z,17.58
2022-09-16T19:38:45.156Z,17.55
2022-09-16T19:41:12.698Z,17.58
2022-09-16T19:43:40.115Z,17.60
2022-09-16T19:46:17.514Z,17.37
2022-09-16T19:48:45.571Z,17.43
2022-09-16T19:51:13.982Z,17.40
2022-09-16T19:53:41.670Z,17.44
2022-09-16T19:56:10.110Z,17.35
2022-09-16T19:58:37.705Z,17.36
2022-09-16T20:01:07.152Z,17.45
2022-09-16T20:03:36.575Z,17.45
2022-09-16T20:06:04.893Z,17.25
2022-09-16T20:08:33.480Z,17.34
2022-09-16T20:11:14.144Z,17.26
2022-09-16T20:13:47.105Z,17.21
2022-09-16T20:16:14.745Z,17.33
2022-09-16T20:18:42.879Z,17.30
2022-09-16T20:21:11.390Z,17.23
2022-09-16T20:23:38.812Z,17.07
2022-09-16T20:26:07.745Z,17.26
2022-09-16T20:28:38.975Z,17.16
2022-09-16T20:31:06.476Z,17.16
2022-09-16T20:33:33.933Z,17.18
2022-09-16T20:36:01.900Z,17.15
2022-09-16T20:38:29.583Z,17.38
2022-09-16T20:40:57.214Z,17.19
2022-09-16T20:43:24.747Z,17.12
2022-09-16T20:45:52.253Z,17.14
2022-09-16T20:48:19.852Z,17.19
2022-09-16T20:50:47.198Z,17.09
2022-09-16T20:53:14.858Z,17.03
2022-09-16T20:55:42.321Z,16.91
2022-09-16T20:58:09.836Z,17.12
2022-09-16T21:00:37.960Z,17.00
2022-09-16T21:03:06.997Z,17.04
2022-09-16T21:05:34.482Z,16.93
2022-09-16T21:08:02.004Z,16.90
2022-09-16T21:10:31.193Z,16.92
2022-09-16T21:12:58.754Z,16.84
2022-09-16T21:15:27.076Z,16.89
2022-09-16T21:17:54.564Z,16.91
2022-09-16T21:20:21.991Z,16.86
2022-09-16T21:22:49.469Z,17.05
2022-09-16T21:25:16.833Z,17.09
2022-09-16T21:27:44.786Z,16.93
2022-09-16T21:30:12.474Z,16.88
2022-09-16T21:32:40.277Z,16.81
2022-09-16T21:35:07.802Z,16.88
2022-09-16T21:37:35.091Z,16.81
2022-09-16T21:40:02.898Z,16.66
2022-09-16T21:42:31.162Z,16.65
2022-09-16T21:45:00.011Z,16.58
2022-09-16T21:47:27.271Z,16.68
2022-09-16T21:49:54.640Z,16.65
2022-09-16T21:52:22.063Z,16.67
2022-09-16T21:54:49.545Z,16.57
2022-09-16T21:57:17.182Z,16.59
2022-09-16T21:59:44.701Z,16.78
2022-09-16T22:02:12.246Z,16.57
2022-09-16T22:04:39.723Z,16.62
2022-09-16T22:07:10.858Z,16.57
2022-09-16T22:09:38.333Z,16.49
2022-09-16T22:12:06.955Z,16.40
2022-09-16T22:14:34.582Z,16.39
2022-09-16T22:17:02.190Z,16.44
2022-09-16T22:19:29.788Z,16.33
2022-09-16T22:21:57.184Z,16.34
2022-09-16T22:24:24.538Z,16.30
2022-09-16T22:26:52.064Z,16.22
2022-09-16T22:29:19.658Z,16.24
2022-09-16T22:31:47.215Z,16.18
2022-09-16T22:34:14.897Z,16.04
2022-09-16T22:36:43.286Z,16.02
2022-09-16T22:39:11.897Z,16.04
2022-09-16T22:41:39.250Z,15.96
2022-09-16T22:44:06.645Z,15.93
2022-09-16T22:46:35.365Z,16.00
2022-09-16T22:49:02.765Z,16.11
2022-09-16T22:51:30.925Z,16.24
2022-09-16T22:53:58.450Z,16.10
2022-09-16T22:56:27.075Z,16.04
2022-09-16T22:58:54.891Z,16.04
2022-09-16T23:01:23.506Z,15.95
2022-09-16T23:03:54.550Z,15.92
2022-09-16T23:06:22.148Z,15.79
2022-09-16T23:08:49.986Z,15.87
2022-09-16T23:11:19.896Z,15.81
2022-09-16T23:13:48.355Z,15.91
2022-09-16T23:16:17.422Z,15.87
2022-09-16T23:18:45.040Z,15.87
2022-09-16T23:21:13.421Z,16.01
2022-09-16T23:23:42.338Z,15.96
2022-09-16T23:26:12.036Z,15.95
2022-09-16T23:28:39.574Z,15.81
2022-09-16T23:31:07.552Z,15.93
2022-09-16T23:33:34.888Z,15.99
2022-09-16T23:36:02.671Z,16.11
2022-09-16T23:38:30.053Z,15.90
2022-09-16T23:40:59.307Z,15.96
2022-09-16T23:43:27.254Z,15.84
2022-09-16T23:45:54.816Z,15.87
2022-09-16T23:48:22.287Z,15.88
2022-09-16T23:50:49.589Z,15.81
2022-09-16T23:53:16.986Z,15.82
2022-09-16T23:55:44.468Z,15.69
2022-09-16T23:58:11.890Z,15.63
